createdAt,value
2022-12-12T00:00:20.928Z,-4.20
2022-12-12T00:02:47.620Z,-4.10
2022-12-12T00:05:15.426Z,-4.10
2022-12-12T00:07:42.135Z,-4.10
2022-12-12T00:10:08.956Z,-4.00
2022-12-12T00:12:35.721Z,-4.30
2022-12-12T00:15:02.396Z,-4.30
2022-12-12T00:17:29.016Z,-4.40
2022-12-12T00:19:55.651Z,-4.30
2022-12-12T00:22:22.443Z,-4.30
2022-12-12T00:24:49.303Z,-4.30
2022-12-12T00:27:15.912Z,-4.20
2022-12-12T00:29:42.529Z,-4.40
2022-12-12T00:32:09.131Z,-4.20
2022-12-12T00:34:35.764Z,-4.20
2022-12-12T00:37:02.369Z,-4.00
2022-12-12T00:39:28.956Z,-4.00
2022-12-12T00:41:55.589Z,-4.00
2022-12-12T00:44:22.177Z,-4.00
2022-12-12T00:46:48.831Z,-4.10
2022-12-12T00:49:15.514Z,-4.40
2022-12-12T00:51:42.954Z,-4.50
2022-12-12T00:54:09.584Z,-4.50
2022-12-12T00:56:36.332Z,-4.50
2022-12-12T00:59:03.713Z,-4.20
2022-12-12T01:01:31.043Z,-4.20
2022-12-12T01:03:58.866Z,-4.20
2022-12-12T01:06:25.827Z,-4.00
2022-12-12T01:08:52.934Z,-4.40
2022-12-12T01:11:20.063Z,-4.50
2022-12-12T01:13:47.517Z,-3.80
2022-12-12T01:16:14.377Z,-4.30
2022-12-12T01:18:41.116Z,-4.40
2022-12-12T01:21:12.347Z,-4.10
2022-12-12T01:23:39.007Z,-4.30
2022-12-12T01:26:10.287Z,-4.20
2022-12-12T01:28:36.929Z,-4.20
2022-12-12T01:31:03.781Z,-4.30
2022-12-12T01:33:30.491Z,-4.40
2022-12-12T01:35:57.135Z,-4.40
2022-12-12T01:38:24.665Z,-4.30
2022-12-12T01:40:51.822Z,-4.60
2022-12-12T01:43:19.563Z,-4.20
2022-12-12T01:45:58.625Z,-4.60
2022-12-12T01:48:41.587Z,-4.50
2022-12-12T01:51:11.623Z,-4.60
2022-12-12T01:53:38.272Z,-4.30
2022-12-12T01:56:07.111Z,-4.60
2022-12-12T01:58:33.816Z,-4.70
2022-12-12T02:01:00.991Z,-4.50
2022-12-12T02:03:27.623Z,-4.40
2022-12-12T02:05:56.461Z,-4.30
2022-12-12T02:08:23.245Z,-4.30
2022-12-12T02:10:49.933Z,-4.40
2022-12-12T02:13:26.612Z,-4.40
2022-12-12T02:16:20.347Z,-4.40
2022-12-12T02:19:00.835Z,-4.40
2022-12-12T02:21:58.002Z,-4.40
2022-12-12T02:25:06.805Z,-4.70
2022-12-12T02:27:48.552Z,-4.80
2022-12-12T02:30:25.309Z,-4.70
2022-12-12T02:33:01.810Z,-4.60
2022-12-12T02:35:34.228Z,-4.80
2022-12-12T02:38:27.615Z,-4.80
2022-12-12T02:41:12.939Z,-4.80
2022-12-12T02:43:44.096Z,-4.80
2022-12-12T02:46:20.621Z,-4.60
2022-12-12T02:49:13.867Z,-4.60
2022-12-12T02:51:40.461Z,-4.40
2022-12-12T02:54:13.915Z,-4.40
2022-12-12T02:56:50.859Z,-4.40
2022-12-12T02:59:34.610Z,-4.70
2022-12-12T03:02:10.276Z,-4.60
2022-12-12T03:05:24.680Z,-4.70
2022-12-12T03:08:01.512Z,-4.70
2022-12-12T03:10:49.613Z,-4.70
2022-12-12T03:13:28.219Z,-4.70
2022-12-12T03:16:06.466Z,-4.70
2022-12-12T03:18:49.599Z,-4.80
2022-12-12T03:21:54.710Z,-4.70
2022-12-12T03:24:31.791Z,-4.00
2022-12-12T03:27:05.862Z,-4.70
2022-12-12T03:29:52.524Z,-4.90
2022-12-12T03:32:22.488Z,-4.80
2022-12-12T03:35:00.514Z,-4.90
2022-12-12T03:37:30.783Z,-4.70
2022-12-12T03:40:16.625Z,-4.90
2022-12-12T03:42:54.806Z,-4.90
2022-12-12T03:45:25.863Z,-4.80
2022-12-12T03:48:28.868Z,-5.00
2022-12-12T03:50:58.535Z,-4.90
2022-12-12T03:53:30.379Z,-4.80
2022-12-12T03:56:12.440Z,-4.80
2022-12-12T03:58:45.746Z,-4.80
2022-12-12T04:01:12.675Z,-4.80
2022-12-12T04:03:46.807Z,-4.90
2022-12-12T04:06:33.557Z,-4.90
2022-12-12T04:09:19.121Z,-5.00
2022-12-12T04:12:35.004Z,-5.00
2022-12-12T04:15:34.886Z,-4.80
2022-12-12T04:18:10.352Z,-4.80
2022-12-12T04:21:14.404Z,-5.00
2022-12-12T04:23:52.151Z,-4.60
2022-12-12T04:26:47.343Z,-4.90
2022-12-12T04:29:30.537Z,-4.90
2022-12-12T04:32:23.196Z,-4.80
2022-12-12T04:34:56.681Z,-4.90
2022-12-12T04:37:27.869Z,-5.00
2022-12-12T04:39:55.994Z,-5.10
2022-12-12T04:42:23.767Z,-5.20
2022-12-12T04:44:52.436Z,-5.20
2022-12-12T04:47:19.016Z,-5.20
2022-12-12T04:49:46.109Z,-5.20
2022-12-12T04:52:13.384Z,-5.10
2022-12-12T04:54:51.539Z,-5.10
2022-12-12T04:57:24.141Z,-5.10
2022-12-12T04:59:50.750Z,-5.10
2022-12-12T05:02:32.426Z,-5.00
2022-12-12T05:05:02.789Z,-5.00
2022-12-12T05:07:41.316Z,-5.00
2022-12-12T05:10:12.497Z,-5.00
2022-12-12T05:12:41.081Z,-4.90
2022-12-12T05:15:08.357Z,-5.00
2022-12-12T05:17:39.355Z,-4.80
2022-12-12T05:20:06.548Z,-4.90
2022-12-12T05:22:33.367Z,-4.90
2022-12-12T05:24:59.998Z,-4.80
2022-12-12T05:27:26.589Z,-4.90
2022-12-12T05:29:53.189Z,-5.10
2022-12-12T05:32:19.777Z,-5.20
2022-12-12T05:34:46.385Z,-5.30
2022-12-12T05:37:12.981Z,-5.10
2022-12-12T05:39:39.576Z,-5.10
2022-12-12T05:42:06.239Z,-5.30
2022-12-12T05:44:33.005Z,-5.20
2022-12-12T05:46:59.600Z,-5.00
2022-12-12T05:49:26.243Z,-4.90
2022-12-12T05:51:52.821Z,-4.90
2022-12-12T05:54:19.425Z,-5.00
2022-12-12T05:56:46.038Z,-4.90
2022-12-12T05:59:12.688Z,-5.00
2022-12-12T06:01:39.283Z,-5.00
2022-12-12T06:04:05.981Z,-5.20
2022-12-12T06:06:32.645Z,-5.10
2022-12-12T06:08:59.248Z,-5.40
2022-12-12T06:11:25.839Z,-5.40
2022-12-12T06:13:52.439Z,-5.30
2022-12-12T06:16:19.161Z,-5.20
2022-12-12T06:18:50.224Z,-5.50
2022-12-12T06:21:16.824Z,-5.40
2022-12-12T06:23:43.488Z,-5.30
2022-12-12T06:26:11.219Z,-5.50
2022-12-12T06:28:38.054Z,-5.30
2022-12-12T06:31:11.141Z,-5.30
2022-12-12T06:33:38.654Z,-5.20
2022-12-12T06:36:09.366Z,-5.30
2022-12-12T06:38:36.140Z,-5.20
2022-12-12T06:41:10.080Z,-5.20
2022-12-12T06:43:36.697Z,-5.20
2022-12-12T06:46:04.434Z,-5.30
2022-12-12T06:48:31.970Z,-5.40
2022-12-12T06:50:58.714Z,-5.50
2022-12-12T06:53:25.466Z,-5.40
2022-12-12T06:55:52.244Z,-5.20
2022-12-12T06:58:18.861Z,-5.30
2022-12-12T07:00:49.745Z,-5.60
2022-12-12T07:03:16.422Z,-5.40
2022-12-12T07:05:43.935Z,-5.50
2022-12-12T07:08:10.576Z,-5.80
2022-12-12T07:10:37.260Z,-5.70
2022-12-12T07:13:04.741Z,-5.60
2022-12-12T07:15:31.422Z,-6.00
2022-12-12T07:17:58.071Z,-5.90
2022-12-12T07:20:24.684Z,-5.70
2022-12-12T07:22:51.280Z,-5.60
2022-12-12T07:25:17.932Z,-5.60
2022-12-12T07:27:44.532Z,-5.80
2022-12-12T07:30:12.363Z,-5.60
2022-12-12T07:32:38.950Z,-5.70
2022-12-12T07:35:05.736Z,-5.80
2022-12-12T07:37:32.347Z,-5.50
2022-12-12T07:39:58.966Z,-5.80
2022-12-12T07:42:25.567Z,-5.90
2022-12-12T07:44:52.153Z,-5.90
2022-12-12T07:47:18.747Z,-5.70
2022-12-12T07:49:45.418Z,-5.80
2022-12-12T07:52:12.160Z,-5.90
2022-12-12T07:54:38.796Z,-5.70
2022-12-12T07:57:05.432Z,-5.90
2022-12-12T07:59:32.281Z,-5.70
2022-12-12T08:01:58.963Z,-5.80
2022-12-12T08:04:25.615Z,-5.60
2022-12-12T08:06:59.680Z,-5.90
2022-12-12T08:09:28.358Z,-5.90
2022-12-12T08:11:57.031Z,-5.90
2022-12-12T08:14:24.068Z,-5.70
2022-12-12T08:16:50.802Z,-5.70
2022-12-12T08:19:17.506Z,-5.60
2022-12-12T08:21:44.663Z,-5.60
2022-12-12T08:24:12.492Z,-5.40
2022-12-12T08:26:39.205Z,-5.60
2022-12-12T08:29:05.893Z,-5.60
2022-12-12T08:31:32.605Z,-5.90
2022-12-12T08:33:59.878Z,-5.90
2022-12-12T08:36:30.144Z,-6.00
2022-12-12T08:38:57.799Z,-6.00
2022-12-12T08:41:25.099Z,-5.70
2022-12-12T08:43:51.787Z,-5.60
2022-12-12T08:46:20.606Z,-5.70
2022-12-12T08:48:47.809Z,-5.60
2022-12-12T08:51:17.626Z,-5.60
2022-12-12T08:53:45.802Z,-5.60
2022-12-12T08:56:12.571Z,-5.70
2022-12-12T08:58:39.145Z,-5.80
2022-12-12T09:01:32.230Z,-5.70
2022-12-12T09:03:58.877Z,-5.60
2022-12-12T09:06:25.904Z,-5.70
2022-12-12T09:08:52.704Z,-5.80
2022-12-12T09:11:19.457Z,-5.70
2022-12-12T09:13:46.066Z,-5.40
2022-12-12T09:16:12.821Z,-5.40
2022-12-12T09:18:43.238Z,-5.60
2022-12-12T09:21:14.667Z,-5.70
2022-12-12T09:23:41.265Z,-5.70
2022-12-12T09:26:08.479Z,-5.90
2022-12-12T09:28:35.187Z,-5.80
2022-12-12T09:31:04.980Z,-5.70
2022-12-12T09:33:31.860Z,-5.70
2022-12-12T09:36:01.277Z,-5.60
2022-12-12T09:38:27.946Z,-5.40
2022-12-12T09:40:54.560Z,-5.20
2022-12-12T09:43:34.880Z,-5.20
2022-12-12T09:46:01.515Z,-5.20
2022-12-12T09:48:36.709Z,-5.10
2022-12-12T09:51:03.349Z,-5.10
2022-12-12T09:53:29.949Z,-5.10
2022-12-12T09:56:19.519Z,-5.00
2022-12-12T09:58:50.283Z,-5.00
2022-12-12T10:01:23.258Z,-4.90
2022-12-12T10:04:08.138Z,-4.80
2022-12-12T10:06:41.174Z,-4.70
2022-12-12T10:09:34.032Z,-4.80
2022-12-12T10:12:06.481Z,-4.80
2022-12-12T10:14:46.240Z,-4.70
2022-12-12T10:17:26.932Z,-4.80
2022-12-12T10:19:55.973Z,-4.80
2022-12-12T10:22:30.258Z,-4.70
2022-12-12T10:25:02.622Z,-4.60
2022-12-12T10:27:29.395Z,-4.60
2022-12-12T10:29:56.007Z,-4.60
2022-12-12T10:32:31.683Z,-4.50
2022-12-12T10:35:16.930Z,-4.40
2022-12-12T10:37:47.345Z,-4.30
2022-12-12T10:40:39.181Z,-4.40
2022-12-12T10:43:19.200Z,-4.30
2022-12-12T10:45:55.000Z,-4.20
2022-12-12T10:48:21.865Z,-4.20
2022-12-12T10:50:52.923Z,-4.20
2022-12-12T10:53:19.538Z,-4.10
2022-12-12T10:55:49.869Z,-4.10
2022-12-12T10:58:19.392Z,-4.10
2022-12-12T11:00:47.040Z,-4.00
2022-12-12T11:03:30.204Z,-3.90
2022-12-12T11:05:56.856Z,-3.90
2022-12-12T11:08:31.261Z,-3.90
2022-12-12T11:11:20.723Z,-3.90
2022-12-12T11:13:54.593Z,-3.80
2022-12-12T11:16:26.096Z,-3.80
2022-12-12T11:19:04.957Z,-3.70
2022-12-12T11:21:35.725Z,-3.70
2022-12-12T11:24:13.295Z,-3.60
2022-12-12T11:26:56.185Z,-3.70
2022-12-12T11:29:35.429Z,-3.60
2022-12-12T11:32:02.263Z,-3.60
2022-12-12T11:34:28.964Z,-3.60
2022-12-12T11:36:55.918Z,-3.60
2022-12-12T11:39:30.961Z,-3.60
2022-12-12T11:42:02.804Z,-3.50
2022-12-12T11:44:37.383Z,-3.50
2022-12-12T11:47:25.219Z,-3.30
2022-12-12T11:49:59.373Z,-3.10
2022-12-12T11:52:32.881Z,-3.00
2022-12-12T11:54:59.802Z,-3.10
2022-12-12T11:57:32.152Z,-3.20
2022-12-12T12:00:28.884Z,-3.30
2022-12-12T12:03:25.588Z,-3.30
2022-12-12T12:06:10.684Z,-3.00
2022-12-12T12:09:10.705Z,-3.00
2022-12-12T12:12:18.871Z,-3.10
2022-12-12T12:15:00.527Z,-3.10
2022-12-12T12:17:44.515Z,-3.10
2022-12-12T12:20:17.384Z,-3.00
2022-12-12T12:23:05.801Z,-3.10
2022-12-12T12:25:50.437Z,-3.00
2022-12-12T12:28:54.929Z,-3.00
2022-12-12T12:31:42.053Z,-2.80
2022-12-12T12:34:11.678Z,-2.70
2022-12-12T12:36:55.222Z,-2.30
2022-12-12T12:39:30.626Z,-2.60
2022-12-12T12:42:20.549Z,-2.70
2022-12-12T12:45:10.291Z,-2.70
2022-12-12T12:47:43.104Z,-2.70
2022-12-12T12:50:15.120Z,-2.70
2022-12-12T12:52:43.809Z,-2.70
2022-12-12T12:55:17.463Z,-2.50
2022-12-12T12:57:44.939Z,-2.30
2022-12-12T13:00:20.118Z,-2.40
2022-12-12T13:02:57.074Z,-2.10
2022-12-12T13:05:33.673Z,-1.80
2022-12-12T13:08:06.299Z,-2.10
2022-12-12T13:10:33.045Z,-1.80
2022-12-12T13:13:01.658Z,-2.00
2022-12-12T13:15:49.629Z,-2.10
2022-12-12T13:18:16.996Z,-2.00
2022-12-12T13:21:15.843Z,-1.80
2022-12-12T13:24:06.162Z,-1.70
2022-12-12T13:27:02.246Z,-1.90
2022-12-12T13:29:35.280Z,-1.70
2022-12-12T13:32:13.854Z,-1.90
2022-12-12T13:34:43.857Z,-1.80
2022-12-12T13:37:15.399Z,-1.90
2022-12-12T13:39:41.997Z,-1.90
2022-12-12T13:42:09.760Z,-2.00
2022-12-12T13:44:46.149Z,-1.50
2022-12-12T13:47:21.928Z,-1.80
2022-12-12T13:50:06.912Z,-1.90
2022-12-12T13:52:42.824Z,-1.90
2022-12-12T13:55:16.058Z,-1.60
2022-12-12T13:57:58.862Z,-1.50
2022-12-12T14:00:29.988Z,-1.60
2022-12-12T14:03:02.036Z,-1.90
2022-12-12T14:05:34.365Z,-2.00
2022-12-12T14:08:10.249Z,-1.90
2022-12-12T14:10:43.527Z,-1.50
2022-12-12T14:13:22.464Z,-1.80
2022-12-12T14:15:58.148Z,-2.00
2022-12-12T14:18:30.059Z,-2.00
2022-12-12T14:21:06.944Z,-2.20
2022-12-12T14:23:44.460Z,-2.20
2022-12-12T14:26:40.523Z,-2.20
2022-12-12T14:29:16.364Z,-2.20
2022-12-12T14:32:13.948Z,-1.90
2022-12-12T14:34:56.984Z,-2.10
2022-12-12T14:37:38.679Z,-2.30
2022-12-12T14:40:10.781Z,-2.20
2022-12-12T14:43:15.433Z,-2.30
2022-12-12T14:45:39.392Z,-2.40
2022-12-12T14:48:28.616Z,-2.50
2022-12-12T14:51:04.213Z,-2.60
2022-12-12T14:53:36.823Z,-2.60
2022-12-12T14:56:26.307Z,-2.70
2022-12-12T14:58:57.201Z,-2.80
2022-12-12T15:01:56.137Z,-2.80
2022-12-12T15:04:23.257Z,-2.80
2022-12-12T15:07:00.142Z,-2.80
2022-12-12T15:09:37.368Z,-2.90
2022-12-12T15:12:10.106Z,-3.00
2022-12-12T15:14:37.696Z,-3.00
2022-12-12T15:17:26.168Z,-3.00
2022-12-12T15:19:58.228Z,-3.10
2022-12-12T15:22:35.586Z,-3.20
2022-12-12T15:25:23.894Z,-3.20
2022-12-12T15:27:55.803Z,-3.30
2022-12-12T15:30:33.067Z,-3.40
2022-12-12T15:33:00.131Z,-3.50
2022-12-12T15:35:26.916Z,-3.60
2022-12-12T15:38:07.361Z,-3.70
2022-12-12T15:40:34.873Z,-3.70
2022-12-12T15:43:14.344Z,-3.80
2022-12-12T15:45:46.607Z,-3.90
2022-12-12T15:48:14.278Z,-3.90
2022-12-12T15:50:43.863Z,-4.20
2022-12-12T15:53:22.868Z,-4.40
2022-12-12T15:56:15.189Z,-4.50
2022-12-12T15:58:43.957Z,-4.60
2022-12-12T16:01:21.543Z,-4.70
2022-12-12T16:04:00.312Z,-4.70
2022-12-12T16:06:43.653Z,-4.70
2022-12-12T16:09:10.258Z,-4.80
2022-12-12T16:11:47.254Z,-4.80
2022-12-12T16:14:39.724Z,-4.80
2022-12-12T16:17:24.367Z,-4.80
2022-12-12T16:20:01.164Z,-4.80
2022-12-12T16:22:42.418Z,-5.00
2022-12-12T16:25:29.699Z,-5.20
2022-12-12T16:28:08.590Z,-5.30
2022-12-12T16:30:35.820Z,-5.30
2022-12-12T16:33:13.503Z,-5.40
2022-12-12T16:35:40.109Z,-5.50
2022-12-12T16:38:16.557Z,-5.50
2022-12-12T16:40:44.005Z,-5.40
2022-12-12T16:43:14.662Z,-5.30
2022-12-12T16:45:41.382Z,-5.40
2022-12-12T16:48:34.607Z,-5.30
2022-12-12T16:51:02.766Z,-5.20
2022-12-12T16:53:29.369Z,-5.20
2022-12-12T16:55:56.022Z,-5.20
2022-12-12T16:58:22.650Z,-5.30
2022-12-12T17:00:49.928Z,-5.40
2022-12-12T17:03:16.921Z,-5.40
2022-12-12T17:05:44.735Z,-5.40
2022-12-12T17:08:11.460Z,-5.50
2022-12-12T17:10:38.111Z,-5.40
2022-12-12T17:13:05.948Z,-5.50
2022-12-12T17:15:32.843Z,-5.70
2022-12-12T17:17:59.700Z,-5.90
2022-12-12T17:20:26.525Z,-6.00
2022-12-12T17:22:53.305Z,-5.90
2022-12-12T17:25:21.412Z,-5.90
2022-12-12T17:27:48.790Z,-6.00
2022-12-12T17:30:15.742Z,-6.20
2022-12-12T17:32:42.719Z,-6.40
2022-12-12T17:35:09.513Z,-6.20
2022-12-12T17:37:36.135Z,-6.00
2022-12-12T17:40:03.076Z,-5.90
2022-12-12T17:42:31.284Z,-6.00
2022-12-12T17:44:58.079Z,-6.30
2022-12-12T17:47:24.693Z,-6.20
2022-12-12T17:49:51.268Z,-6.10
2022-12-12T17:52:17.860Z,-6.00
2022-12-12T17:54:44.457Z,-6.10
2022-12-12T17:57:31.131Z,-6.00
2022-12-12T17:59:58.242Z,-6.40
2022-12-12T18:02:25.079Z,-6.40
2022-12-12T18:04:51.741Z,-6.40
2022-12-12T18:07:18.370Z,-6.40
2022-12-12T18:09:44.958Z,-6.40
2022-12-12T18:12:11.560Z,-6.20
2022-12-12T18:14:38.162Z,-6.50
2022-12-12T18:17:04.879Z,-6.40
2022-12-12T18:19:31.553Z,-6.40
2022-12-12T18:22:01.175Z,-6.60
2022-12-12T18:24:29.789Z,-6.70
2022-12-12T18:26:57.543Z,-6.60
2022-12-12T18:29:24.293Z,-6.40
2022-12-12T18:31:51.135Z,-6.50
2022-12-12T18:34:17.865Z,-6.40
2022-12-12T18:36:44.501Z,-6.30
2022-12-12T18:39:11.117Z,-6.60
2022-12-12T18:41:37.813Z,-6.60
2022-12-12T18:44:08.563Z,-6.70
2022-12-12T18:46:41.997Z,-6.90
2022-12-12T18:49:10.732Z,-6.90
2022-12-12T18:51:37.377Z,-6.90
2022-12-12T18:54:08.091Z,-6.70
2022-12-12T18:56:37.776Z,-6.70
2022-12-12T18:59:04.439Z,-6.80
2022-12-12T19:01:32.661Z,-6.80
2022-12-12T19:04:02.494Z,-6.80
2022-12-12T19:06:33.815Z,-6.80
2022-12-12T19:09:08.255Z,-7.00
2022-12-12T19:11:35.673Z,-7.30
2022-12-12T19:14:02.380Z,-7.20
2022-12-12T19:16:29.037Z,-7.20
2022-12-12T19:18:55.705Z,-7.00
2022-12-12T19:21:23.693Z,-6.90
2022-12-12T19:23:50.829Z,-6.90
2022-12-12T19:26:26.822Z,-7.00
2022-12-12T19:28:57.717Z,-7.10
2022-12-12T19:31:24.618Z,-7.30
2022-12-12T19:33:51.235Z,-7.20
2022-12-12T19:36:22.216Z,-7.10
2022-12-12T19:38:49.413Z,-7.10
2022-12-12T19:41:17.190Z,-7.20
2022-12-12T19:43:44.818Z,-7.40
2022-12-12T19:46:13.188Z,-7.30
2022-12-12T19:48:40.026Z,-7.40
2022-12-12T19:51:10.637Z,-7.60
2022-12-12T19:53:41.440Z,-7.60
2022-12-12T19:56:10.706Z,-7.60
2022-12-12T19:58:38.821Z,-7.70
2022-12-12T20:01:11.302Z,-7.80
2022-12-12T20:03:37.978Z,-7.90
2022-12-12T20:06:06.791Z,-7.90
2022-12-12T20:08:33.805Z,-7.90
2022-12-12T20:11:05.546Z,-7.60
2022-12-12T20:13:32.210Z,-7.60
2022-12-12T20:16:10.476Z,-7.90
2022-12-12T20:18:37.316Z,-8.20
2022-12-12T20:21:04.679Z,-8.00
2022-12-12T20:23:32.263Z,-7.70
2022-12-12T20:25:58.864Z,-7.80
2022-12-12T20:28:25.459Z,-7.60
2022-12-12T20:30:57.128Z,-7.60
2022-12-12T20:33:23.887Z,-7.90
2022-12-12T20:35:50.473Z,-7.70
2022-12-12T20:38:17.231Z,-7.60
2022-12-12T20:40:43.827Z,-7.80
2022-12-12T20:43:10.429Z,-7.70
2022-12-12T20:45:38.001Z,-7.70
2022-12-12T20:48:07.726Z,-7.70
2022-12-12T20:50:34.663Z,-7.60
2022-12-12T20:53:01.278Z,-7.60
2022-12-12T20:55:27.927Z,-7.80
2022-12-12T20:57:55.141Z,-7.90
2022-12-12T21:00:25.339Z,-7.90
2022-12-12T21:02:52.179Z,-7.70
2022-12-12T21:05:18.794Z,-7.70
2022-12-12T21:07:45.387Z,-7.70
2022-12-12T21:10:11.966Z,-7.70
2022-12-12T21:12:38.576Z,-7.80
2022-12-12T21:15:05.500Z,-7.70
2022-12-12T21:17:32.112Z,-7.70
2022-12-12T21:20:04.630Z,-7.70
2022-12-12T21:22:33.041Z,-7.70
2022-12-12T21:24:59.626Z,-7.70
2022-12-12T21:27:26.366Z,-7.70
2022-12-12T21:29:53.073Z,-7.90
2022-12-12T21:32:19.662Z,-7.90
2022-12-12T21:34:46.312Z,-7.80
2022-12-12T21:37:12.928Z,-7.90
2022-12-12T21:39:42.125Z,-8.20
2022-12-12T21:42:08.779Z,-8.10
2022-12-12T21:44:38.981Z,-8.10
2022-12-12T21:47:09.253Z,-7.90
2022-12-12T21:49:35.864Z,-7.90
2022-12-12T21:52:04.277Z,-7.80
2022-12-12T21:54:31.040Z,-8.10
2022-12-12T21:56:58.585Z,-8.00
2022-12-12T21:59:25.427Z,-7.90
2022-12-12T22:01:54.754Z,-7.90
2022-12-12T22:04:21.399Z,-7.90
2022-12-12T22:06:48.060Z,-7.80
2022-12-12T22:09:14.670Z,-7.90
2022-12-12T22:11:49.309Z,-7.90
2022-12-12T22:14:17.989Z,-8.50
2022-12-12T22:16:44.732Z,-8.60
2022-12-12T22:19:12.601Z,-8.60
2022-12-12T22:21:39.207Z,-8.30
2022-12-12T22:24:06.360Z,-8.10
2022-12-12T22:26:34.748Z,-8.20
2022-12-12T22:29:06.627Z,-8.40
2022-12-12T22:31:34.967Z,-8.50
2022-12-12T22:34:02.944Z,-8.70
2022-12-12T22:36:31.487Z,-8.70
2022-12-12T22:38:58.198Z,-8.90
2022-12-12T22:41:25.283Z,-8.80
2022-12-12T22:43:56.201Z,-8.80
2022-12-12T22:46:25.016Z,-8.60
2022-12-12T22:48:52.596Z,-8.50
2022-12-12T22:51:27.334Z,-8.30
2022-12-12T22:53:57.941Z,-8.40
2022-12-12T22:56:24.567Z,-8.40
2022-12-12T22:58:51.259Z,-8.50
2022-12-12T23:01:20.779Z,-8.60
2022-12-12T23:03:47.511Z,-8.70
2022-12-12T23:06:19.473Z,-8.60
2022-12-12T23:09:06.191Z,-8.50
2022-12-12T23:11:33.230Z,-8.90
2022-12-12T23:14:03.299Z,-8.80
2022-12-12T23:16:31.070Z,-8.60
2022-12-12T23:18:58.441Z,-8.60
2022-12-12T23:21:25.324Z,-8.40
2022-12-12T23:23:52.047Z,-8.50
2022-12-12T23:26:20.964Z,-8.50
2022-12-12T23:28:47.756Z,-8.50
2022-12-12T23:31:17.214Z,-8.90
2022-12-12T23:33:43.851Z,-8.90
2022-12-12T23:36:11.288Z,-8.70
2022-12-12T23:38:37.912Z,-8.70
2022-12-12T23:41:12.452Z,-8.80
2022-12-12T23:43:39.238Z,-9.00
2022-12-12T23:46:07.579Z,-9.20
2022-12-12T23:48:34.796Z,-9.30
2022-12-12T23:51:01.526Z,-9.40
2022-12-12T23:53:31.288Z,-9.50
2022-12-12T23:55:59.945Z,-9.40
2022-12-12T23:58:26.533Z,-9.20
